Airfield :
LOGIN :

Register | Disclaimer

   EN    FR    IT 

 










Legend :    VFR   Marginal VFR   IFR   Intensive IFR   Very Intensive IFR
Visi :
Ceiling :
>= 8 km
>= 3000ft
5 to 8 km
1000 to 3000 ft
1500m to 5 km
500 to 1000 ft
800 to 1500m
200 to 500 ft
< 800m
< 200 ft
Symbols :   Thunderstorms  Fog  Heavy snow  Heavy precipitations  Wind > 20 kt
SIGMETs :     Misc.  Thunderstorms  Icing  Turbulence  Mountain Waves  Volcanic Ashes






- Airport Elevation : 2001 ft
- IATA code : MAD


LEMD - Madrid

CURRENT METAR :
  • 210530Z 03013KT 350V070 9999 FEW080 05/M01 Q1020 NOSIG

EXPIRED METARs :
  • 210500Z 03012G23KT 330V090 9999 FEW075 05/M01 Q1020 NOSIG
  • 210430Z 03010KT 340V100 9999 FEW033 05/M02 Q1021 NOSIG
  • 210400Z 01010KT 340V070 9999 SCT033 05/M02 Q1021 NOSIG
  • 210330Z 02012G22KT 350V080 9999 SCT080 05/M02 Q1022 NOSIG
  • 210300Z 03011G23KT 350V070 9999 FEW035 SCT070 04/M02 Q1022 NOSIG

TAF TAF LEMD
Valid from the 21 at 06:00 until the 22 at 12:00 UTC


210500Z 2106/2212 02015KT 9999 FEW030 SCT045 TX09/2115Z TN03/2206Z
TEMPO 2106/2122 05015G25KT
PROB40
TEMPO 2106/2118 03020G32KT
PROB40
TEMPO 2110/2122 3000 RA SHRA BKN030TCU
PROB30
TEMPO 2205/2212 SHRA SCT030TCU



MET'MAP, your aeronautical weather chart ! - Copyright ORBIFLY December 2007 - Disclaimer

ORBIFLY MET'MAP TEAM :

Programming & Development : Alexandra Zaïnal
Concept & original design : Baudouin d'Aumeries
Assistance for programming : Marc-Olivier Méhu
Technical & hardware support : Manuel Goepfert

Contact : metmap@orbifly.com




SOURCES & CREDITS :

   NOAA